Feldkirch, Austria
Current Conditions -  °F | °C
As of 8:50 PM on Friday 21 Nov 2014 (Local Time) from LSZR Reporting Station
Broken Clouds Broken Clouds  
Wind Chill: 43°   Ceiling: 6000
Heat Index: 43°   Visibility: 4mi
Dew Point: 43°   Wind: 2mph
Humidity: 100%   Direction: NA
Pressure: 30.15"   Gusts: NA
Location:  47.25°N, 9.59°E
Report Text: LSZR 211850Z VRB02KT 7000 BKN060 BKN090 06/06 Q1021 NOSIG RMK P
Loading
Personal Weather Stations






























Interactive Weather Map New forecast layout! Learn more

10-Day Weather Forecast

Advertisements
Track Severe Weather on mobile